<?xml version="1.0" encoding="UTF-8" standalone="no" ?>
<gpx xmlns="http://www.topografix.com/GPX/1/1" xmlns:xsi="http://www.w3.org/2001/XMLSchema-instance" xsi:schemaLocation="http://www.topografix.com/GPX/1/1 http://www.topografix.com/GPX/1/1/gpx.xsd" version="1.1" creator="VisuGPX - https://www.visugpx.com">
  <metadata>
    <name>2021-03-30 Ventenac Cabardes</name>
  </metadata>
  <trk>
    <name><![CDATA[2021-03-30 Ventenac Cabardes,Patrick,Jacques,José,Carine Rosy et Christine]]></name>
    <trkseg>
      <trkpt lat="43.26405" lon="2.28761">
        <ele>123.73828125</ele>
        <time>2021-03-30T06:02:03Z</time>
      </trkpt>
      <trkpt lat="43.26414" lon="2.28742">
        <ele>123.9140625</ele>
        <time>2021-03-30T06:02:33Z</time>
      </trkpt>
      <trkpt lat="43.26431" lon="2.28729">
        <ele>124.203125</ele>
        <time>2021-03-30T06:02:42Z</time>
      </trkpt>
      <trkpt lat="43.26444" lon="2.28707">
        <ele>124.4453125</ele>
        <time>2021-03-30T06:02:52Z</time>
      </trkpt>
      <trkpt lat="43.2646" lon="2.28689">
        <ele>124.640625</ele>
        <time>2021-03-30T06:03:01Z</time>
      </trkpt>
      <trkpt lat="43.26478" lon="2.28695">
        <ele>125.11328125</ele>
        <time>2021-03-30T06:03:12Z</time>
      </trkpt>
      <trkpt lat="43.26494" lon="2.28707">
        <ele>125.69921875</ele>
        <time>2021-03-30T06:03:23Z</time>
      </trkpt>
      <trkpt lat="43.26511" lon="2.28719">
        <ele>126.3125</ele>
        <time>2021-03-30T06:03:34Z</time>
      </trkpt>
      <trkpt lat="43.26529" lon="2.28738">
        <ele>126.95703125</ele>
        <time>2021-03-30T06:03:47Z</time>
      </trkpt>
      <trkpt lat="43.26556" lon="2.28753">
        <ele>127.453125</ele>
        <time>2021-03-30T06:03:58Z</time>
      </trkpt>
      <trkpt lat="43.26582" lon="2.28768">
        <ele>127.92578125</ele>
        <time>2021-03-30T06:04:07Z</time>
      </trkpt>
      <trkpt lat="43.266" lon="2.28783">
        <ele>128.39453125</ele>
        <time>2021-03-30T06:04:16Z</time>
      </trkpt>
      <trkpt lat="43.2662" lon="2.28797">
        <ele>129.1484375</ele>
        <time>2021-03-30T06:04:25Z</time>
      </trkpt>
      <trkpt lat="43.26646" lon="2.28809">
        <ele>130.29296875</ele>
        <time>2021-03-30T06:04:36Z</time>
      </trkpt>
      <trkpt lat="43.26663" lon="2.2882">
        <ele>131.421875</ele>
        <time>2021-03-30T06:04:45Z</time>
      </trkpt>
      <trkpt lat="43.2668" lon="2.28833">
        <ele>132.60546875</ele>
        <time>2021-03-30T06:04:54Z</time>
      </trkpt>
      <trkpt lat="43.26697" lon="2.28846">
        <ele>133.734375</ele>
        <time>2021-03-30T06:05:04Z</time>
      </trkpt>
      <trkpt lat="43.26716" lon="2.28859">
        <ele>135.359375</ele>
        <time>2021-03-30T06:05:14Z</time>
      </trkpt>
      <trkpt lat="43.26733" lon="2.28871">
        <ele>136.95703125</ele>
        <time>2021-03-30T06:05:23Z</time>
      </trkpt>
      <trkpt lat="43.26748" lon="2.28864">
        <ele>137.765625</ele>
        <time>2021-03-30T06:05:34Z</time>
      </trkpt>
      <trkpt lat="43.2676" lon="2.28878">
        <ele>139.1328125</ele>
        <time>2021-03-30T06:05:57Z</time>
      </trkpt>
      <trkpt lat="43.26742" lon="2.2891">
        <ele>139.01171875</ele>
        <time>2021-03-30T06:06:15Z</time>
      </trkpt>
      <trkpt lat="43.26721" lon="2.28936">
        <ele>138.80859375</ele>
        <time>2021-03-30T06:06:28Z</time>
      </trkpt>
      <trkpt lat="43.26707" lon="2.28982">
        <ele>140.09765625</ele>
        <time>2021-03-30T06:06:47Z</time>
      </trkpt>
      <trkpt lat="43.26702" lon="2.29021">
        <ele>141.140625</ele>
        <time>2021-03-30T06:06:56Z</time>
      </trkpt>
      <trkpt lat="43.26694" lon="2.29054">
        <ele>141.203125</ele>
        <time>2021-03-30T06:07:01Z</time>
      </trkpt>
      <trkpt lat="43.26685" lon="2.29093">
        <ele>141.53515625</ele>
        <time>2021-03-30T06:07:14Z</time>
      </trkpt>
      <trkpt lat="43.26675" lon="2.29124">
        <ele>141.87109375</ele>
        <time>2021-03-30T06:07:22Z</time>
      </trkpt>
      <trkpt lat="43.26669" lon="2.29153">
        <ele>142.52734375</ele>
        <time>2021-03-30T06:07:30Z</time>
      </trkpt>
      <trkpt lat="43.2667" lon="2.29174">
        <ele>143.34375</ele>
        <time>2021-03-30T06:07:39Z</time>
      </trkpt>
      <trkpt lat="43.26689" lon="2.29189">
        <ele>145.2421875</ele>
        <time>2021-03-30T06:07:50Z</time>
      </trkpt>
      <trkpt lat="43.26706" lon="2.29222">
        <ele>147.76953125</ele>
        <time>2021-03-30T06:08:11Z</time>
      </trkpt>
      <trkpt lat="43.26737" lon="2.2925">
        <ele>151.65234375</ele>
        <time>2021-03-30T06:08:31Z</time>
      </trkpt>
      <trkpt lat="43.26789" lon="2.29269">
        <ele>156.0703125</ele>
        <time>2021-03-30T06:08:58Z</time>
      </trkpt>
      <trkpt lat="43.26814" lon="2.29273">
        <ele>157.62890625</ele>
        <time>2021-03-30T06:09:11Z</time>
      </trkpt>
      <trkpt lat="43.26838" lon="2.29279">
        <ele>158.6015625</ele>
        <time>2021-03-30T06:09:23Z</time>
      </trkpt>
      <trkpt lat="43.26856" lon="2.29283">
        <ele>159.3203125</ele>
        <time>2021-03-30T06:09:31Z</time>
      </trkpt>
      <trkpt lat="43.26887" lon="2.29286">
        <ele>160.7578125</ele>
        <time>2021-03-30T06:09:56Z</time>
      </trkpt>
      <trkpt lat="43.26918" lon="2.29281">
        <ele>162.0859375</ele>
        <time>2021-03-30T06:10:09Z</time>
      </trkpt>
      <trkpt lat="43.26944" lon="2.29275">
        <ele>162.82421875</ele>
        <time>2021-03-30T06:10:23Z</time>
      </trkpt>
      <trkpt lat="43.26971" lon="2.29285">
        <ele>164.15625</ele>
        <time>2021-03-30T06:10:46Z</time>
      </trkpt>
      <trkpt lat="43.26976" lon="2.29312">
        <ele>165.1953125</ele>
        <time>2021-03-30T06:11:02Z</time>
      </trkpt>
      <trkpt lat="43.26958" lon="2.29344">
        <ele>164.8984375</ele>
        <time>2021-03-30T06:11:15Z</time>
      </trkpt>
      <trkpt lat="43.2693" lon="2.29386">
        <ele>163.58203125</ele>
        <time>2021-03-30T06:11:33Z</time>
      </trkpt>
      <trkpt lat="43.26901" lon="2.29428">
        <ele>162.59375</ele>
        <time>2021-03-30T06:11:50Z</time>
      </trkpt>
      <trkpt lat="43.2687" lon="2.29471">
        <ele>161.23828125</ele>
        <time>2021-03-30T06:12:09Z</time>
      </trkpt>
      <trkpt lat="43.26845" lon="2.29475">
        <ele>159.91015625</ele>
        <time>2021-03-30T06:12:17Z</time>
      </trkpt>
      <trkpt lat="43.26822" lon="2.29485">
        <ele>158.50390625</ele>
        <time>2021-03-30T06:12:25Z</time>
      </trkpt>
      <trkpt lat="43.26816" lon="2.29515">
        <ele>157.6484375</ele>
        <time>2021-03-30T06:12:34Z</time>
      </trkpt>
      <trkpt lat="43.26818" lon="2.29546">
        <ele>157.14453125</ele>
        <time>2021-03-30T06:12:46Z</time>
      </trkpt>
      <trkpt lat="43.2681" lon="2.29577">
        <ele>156.16796875</ele>
        <time>2021-03-30T06:12:56Z</time>
      </trkpt>
      <trkpt lat="43.26785" lon="2.29619">
        <ele>152.87890625</ele>
        <time>2021-03-30T06:13:05Z</time>
      </trkpt>
      <trkpt lat="43.26776" lon="2.29641">
        <ele>151.66015625</ele>
        <time>2021-03-30T06:13:14Z</time>
      </trkpt>
      <trkpt lat="43.26753" lon="2.29668">
        <ele>149.39453125</ele>
        <time>2021-03-30T06:13:25Z</time>
      </trkpt>
      <trkpt lat="43.26739" lon="2.29698">
        <ele>146.97265625</ele>
        <time>2021-03-30T06:13:34Z</time>
      </trkpt>
      <trkpt lat="43.26719" lon="2.29723">
        <ele>144.37109375</ele>
        <time>2021-03-30T06:13:48Z</time>
      </trkpt>
      <trkpt lat="43.26692" lon="2.29729">
        <ele>142.71484375</ele>
        <time>2021-03-30T06:13:57Z</time>
      </trkpt>
      <trkpt lat="43.26662" lon="2.29742">
        <ele>140.3359375</ele>
        <time>2021-03-30T06:14:12Z</time>
      </trkpt>
      <trkpt lat="43.26639" lon="2.29769">
        <ele>139.17578125</ele>
        <time>2021-03-30T06:14:23Z</time>
      </trkpt>
      <trkpt lat="43.26619" lon="2.29802">
        <ele>137.89453125</ele>
        <time>2021-03-30T06:14:34Z</time>
      </trkpt>
      <trkpt lat="43.26604" lon="2.29834">
        <ele>136.26171875</ele>
        <time>2021-03-30T06:14:43Z</time>
      </trkpt>
      <trkpt lat="43.26591" lon="2.29856">
        <ele>135.265625</ele>
        <time>2021-03-30T06:14:57Z</time>
      </trkpt>
      <trkpt lat="43.26586" lon="2.29905">
        <ele>132.5859375</ele>
        <time>2021-03-30T06:15:06Z</time>
      </trkpt>
      <trkpt lat="43.26591" lon="2.29932">
        <ele>131.5859375</ele>
        <time>2021-03-30T06:15:13Z</time>
      </trkpt>
      <trkpt lat="43.26598" lon="2.29958">
        <ele>130.734375</ele>
        <time>2021-03-30T06:15:20Z</time>
      </trkpt>
      <trkpt lat="43.26607" lon="2.29985">
        <ele>129.82421875</ele>
        <time>2021-03-30T06:15:28Z</time>
      </trkpt>
      <trkpt lat="43.26614" lon="2.30013">
        <ele>129.01171875</ele>
        <time>2021-03-30T06:15:35Z</time>
      </trkpt>
      <trkpt lat="43.26622" lon="2.30036">
        <ele>129.04296875</ele>
        <time>2021-03-30T06:15:42Z</time>
      </trkpt>
      <trkpt lat="43.2663" lon="2.30063">
        <ele>129.890625</ele>
        <time>2021-03-30T06:15:51Z</time>
      </trkpt>
      <trkpt lat="43.26637" lon="2.30089">
        <ele>130.67578125</ele>
        <time>2021-03-30T06:15:59Z</time>
      </trkpt>
      <trkpt lat="43.26644" lon="2.30115">
        <ele>131.22265625</ele>
        <time>2021-03-30T06:16:07Z</time>
      </trkpt>
      <trkpt lat="43.26652" lon="2.30143">
        <ele>132.1328125</ele>
        <time>2021-03-30T06:16:16Z</time>
      </trkpt>
      <trkpt lat="43.26665" lon="2.30168">
        <ele>133.2578125</ele>
        <time>2021-03-30T06:16:24Z</time>
      </trkpt>
      <trkpt lat="43.26675" lon="2.3019">
        <ele>134.06640625</ele>
        <time>2021-03-30T06:16:32Z</time>
      </trkpt>
      <trkpt lat="43.26687" lon="2.30212">
        <ele>134.75</ele>
        <time>2021-03-30T06:16:40Z</time>
      </trkpt>
      <trkpt lat="43.26698" lon="2.30236">
        <ele>135.3515625</ele>
        <time>2021-03-30T06:16:49Z</time>
      </trkpt>
      <trkpt lat="43.26715" lon="2.30256">
        <ele>136.3203125</ele>
        <time>2021-03-30T06:16:58Z</time>
      </trkpt>
      <trkpt lat="43.26734" lon="2.30246">
        <ele>138.36328125</ele>
        <time>2021-03-30T06:17:07Z</time>
      </trkpt>
      <trkpt lat="43.26751" lon="2.30229">
        <ele>140.5234375</ele>
        <time>2021-03-30T06:17:20Z</time>
      </trkpt>
      <trkpt lat="43.26776" lon="2.30217">
        <ele>143.05859375</ele>
        <time>2021-03-30T06:17:34Z</time>
      </trkpt>
      <trkpt lat="43.26793" lon="2.30196">
        <ele>145.46875</ele>
        <time>2021-03-30T06:17:47Z</time>
      </trkpt>
      <trkpt lat="43.26814" lon="2.30178">
        <ele>147.8828125</ele>
        <time>2021-03-30T06:17:58Z</time>
      </trkpt>
      <trkpt lat="43.26833" lon="2.30165">
        <ele>149.56640625</ele>
        <time>2021-03-30T06:18:08Z</time>
      </trkpt>
      <trkpt lat="43.26853" lon="2.30152">
        <ele>151.48046875</ele>
        <time>2021-03-30T06:18:18Z</time>
      </trkpt>
      <trkpt lat="43.26871" lon="2.30137">
        <ele>153.7265625</ele>
        <time>2021-03-30T06:18:29Z</time>
      </trkpt>
      <trkpt lat="43.2689" lon="2.30126">
        <ele>155.7421875</ele>
        <time>2021-03-30T06:18:41Z</time>
      </trkpt>
      <trkpt lat="43.26908" lon="2.30109">
        <ele>158.03515625</ele>
        <time>2021-03-30T06:18:53Z</time>
      </trkpt>
      <trkpt lat="43.26931" lon="2.30097">
        <ele>160.56640625</ele>
        <time>2021-03-30T06:19:05Z</time>
      </trkpt>
      <trkpt lat="43.26952" lon="2.30084">
        <ele>162.828125</ele>
        <time>2021-03-30T06:19:16Z</time>
      </trkpt>
      <trkpt lat="43.2697" lon="2.30068">
        <ele>164.87890625</ele>
        <time>2021-03-30T06:19:28Z</time>
      </trkpt>
      <trkpt lat="43.26988" lon="2.30045">
        <ele>166.6328125</ele>
        <time>2021-03-30T06:19:41Z</time>
      </trkpt>
      <trkpt lat="43.27005" lon="2.30031">
        <ele>168.1171875</ele>
        <time>2021-03-30T06:19:53Z</time>
      </trkpt>
      <trkpt lat="43.2703" lon="2.30026">
        <ele>169.97265625</ele>
        <time>2021-03-30T06:20:08Z</time>
      </trkpt>
      <trkpt lat="43.27056" lon="2.30017">
        <ele>171.0078125</ele>
        <time>2021-03-30T06:20:21Z</time>
      </trkpt>
      <trkpt lat="43.27078" lon="2.30014">
        <ele>171.92578125</ele>
        <time>2021-03-30T06:20:31Z</time>
      </trkpt>
      <trkpt lat="43.27105" lon="2.30012">
        <ele>173.671875</ele>
        <time>2021-03-30T06:20:41Z</time>
      </trkpt>
      <trkpt lat="43.2712" lon="2.30034">
        <ele>174.37109375</ele>
        <time>2021-03-30T06:20:58Z</time>
      </trkpt>
      <trkpt lat="43.27128" lon="2.30059">
        <ele>174.6171875</ele>
        <time>2021-03-30T06:21:08Z</time>
      </trkpt>
      <trkpt lat="43.27138" lon="2.30084">
        <ele>174.77734375</ele>
        <time>2021-03-30T06:21:17Z</time>
      </trkpt>
      <trkpt lat="43.27149" lon="2.30113">
        <ele>174.9140625</ele>
        <time>2021-03-30T06:21:27Z</time>
      </trkpt>
      <trkpt lat="43.27158" lon="2.3014">
        <ele>174.9375</ele>
        <time>2021-03-30T06:21:37Z</time>
      </trkpt>
      <trkpt lat="43.27176" lon="2.30149">
        <ele>176</ele>
        <time>2021-03-30T06:21:49Z</time>
      </trkpt>
      <trkpt lat="43.27201" lon="2.30156">
        <ele>177.61328125</ele>
        <time>2021-03-30T06:22:00Z</time>
      </trkpt>
      <trkpt lat="43.27227" lon="2.3016">
        <ele>179.37890625</ele>
        <time>2021-03-30T06:22:10Z</time>
      </trkpt>
      <trkpt lat="43.27254" lon="2.30159">
        <ele>181.08984375</ele>
        <time>2021-03-30T06:22:21Z</time>
      </trkpt>
      <trkpt lat="43.27278" lon="2.30147">
        <ele>182.84375</ele>
        <time>2021-03-30T06:22:31Z</time>
      </trkpt>
      <trkpt lat="43.27297" lon="2.30134">
        <ele>184.21484375</ele>
        <time>2021-03-30T06:22:39Z</time>
      </trkpt>
      <trkpt lat="43.27312" lon="2.30125">
        <ele>185.0078125</ele>
        <time>2021-03-30T06:22:45Z</time>
      </trkpt>
      <trkpt lat="43.27336" lon="2.30109">
        <ele>186.03125</ele>
        <time>2021-03-30T06:22:57Z</time>
      </trkpt>
      <trkpt lat="43.27353" lon="2.30121">
        <ele>187.140625</ele>
        <time>2021-03-30T06:23:13Z</time>
      </trkpt>
      <trkpt lat="43.27358" lon="2.30156">
        <ele>187.72265625</ele>
        <time>2021-03-30T06:23:27Z</time>
      </trkpt>
      <trkpt lat="43.27376" lon="2.30175">
        <ele>188.703125</ele>
        <time>2021-03-30T06:23:36Z</time>
      </trkpt>
      <trkpt lat="43.27397" lon="2.3019">
        <ele>189.828125</ele>
        <time>2021-03-30T06:23:45Z</time>
      </trkpt>
      <trkpt lat="43.27417" lon="2.30204">
        <ele>190.6953125</ele>
        <time>2021-03-30T06:23:53Z</time>
      </trkpt>
      <trkpt lat="43.27436" lon="2.30217">
        <ele>191.69140625</ele>
        <time>2021-03-30T06:24:00Z</time>
      </trkpt>
      <trkpt lat="43.27456" lon="2.30227">
        <ele>192.66796875</ele>
        <time>2021-03-30T06:24:08Z</time>
      </trkpt>
      <trkpt lat="43.27471" lon="2.30243">
        <ele>193.0390625</ele>
        <time>2021-03-30T06:24:16Z</time>
      </trkpt>
      <trkpt lat="43.27489" lon="2.30251">
        <ele>193.4921875</ele>
        <time>2021-03-30T06:24:27Z</time>
      </trkpt>
      <trkpt lat="43.2751" lon="2.30246">
        <ele>194.3984375</ele>
        <time>2021-03-30T06:24:38Z</time>
      </trkpt>
      <trkpt lat="43.2753" lon="2.30242">
        <ele>195.26171875</ele>
        <time>2021-03-30T06:24:51Z</time>
      </trkpt>
      <trkpt lat="43.27559" lon="2.3025">
        <ele>196.5546875</ele>
        <time>2021-03-30T06:25:07Z</time>
      </trkpt>
      <trkpt lat="43.27571" lon="2.3027">
        <ele>196.828125</ele>
        <time>2021-03-30T06:25:28Z</time>
      </trkpt>
      <trkpt lat="43.27577" lon="2.30299">
        <ele>196.62109375</ele>
        <time>2021-03-30T06:25:49Z</time>
      </trkpt>
      <trkpt lat="43.27573" lon="2.30334">
        <ele>195.77734375</ele>
        <time>2021-03-30T06:26:07Z</time>
      </trkpt>
      <trkpt lat="43.27561" lon="2.3039">
        <ele>194.15625</ele>
        <time>2021-03-30T06:26:24Z</time>
      </trkpt>
      <trkpt lat="43.27563" lon="2.30433">
        <ele>193.35546875</ele>
        <time>2021-03-30T06:26:43Z</time>
      </trkpt>
      <trkpt lat="43.27582" lon="2.30457">
        <ele>193.984375</ele>
        <time>2021-03-30T06:26:55Z</time>
      </trkpt>
      <trkpt lat="43.27596" lon="2.30477">
        <ele>194.76953125</ele>
        <time>2021-03-30T06:27:06Z</time>
      </trkpt>
      <trkpt lat="43.27614" lon="2.30499">
        <ele>195.52734375</ele>
        <time>2021-03-30T06:27:17Z</time>
      </trkpt>
      <trkpt lat="43.27629" lon="2.30517">
        <ele>195.7578125</ele>
        <time>2021-03-30T06:27:27Z</time>
      </trkpt>
      <trkpt lat="43.27647" lon="2.30534">
        <ele>195.83984375</ele>
        <time>2021-03-30T06:28:10Z</time>
      </trkpt>
      <trkpt lat="43.27655" lon="2.3056">
        <ele>195.34375</ele>
        <time>2021-03-30T06:28:44Z</time>
      </trkpt>
      <trkpt lat="43.27652" lon="2.3059">
        <ele>194.58984375</ele>
        <time>2021-03-30T06:28:57Z</time>
      </trkpt>
      <trkpt lat="43.27647" lon="2.30645">
        <ele>194.18359375</ele>
        <time>2021-03-30T06:29:20Z</time>
      </trkpt>
      <trkpt lat="43.27647" lon="2.30684">
        <ele>193.5703125</ele>
        <time>2021-03-30T06:29:31Z</time>
      </trkpt>
      <trkpt lat="43.27662" lon="2.30698">
        <ele>194.2421875</ele>
        <time>2021-03-30T06:29:41Z</time>
      </trkpt>
      <trkpt lat="43.27679" lon="2.30724">
        <ele>194.21875</ele>
        <time>2021-03-30T06:29:50Z</time>
      </trkpt>
      <trkpt lat="43.27708" lon="2.30732">
        <ele>195.64453125</ele>
        <time>2021-03-30T06:29:58Z</time>
      </trkpt>
      <trkpt lat="43.27728" lon="2.3073">
        <ele>197.0859375</ele>
        <time>2021-03-30T06:30:07Z</time>
      </trkpt>
      <trkpt lat="43.27761" lon="2.30733">
        <ele>199.31640625</ele>
        <time>2021-03-30T06:30:16Z</time>
      </trkpt>
      <trkpt lat="43.27763" lon="2.30756">
        <ele>198.7421875</ele>
        <time>2021-03-30T06:30:25Z</time>
      </trkpt>
      <trkpt lat="43.27763" lon="2.30777">
        <ele>197.98828125</ele>
        <time>2021-03-30T06:30:33Z</time>
      </trkpt>
      <trkpt lat="43.27763" lon="2.30812">
        <ele>196.5546875</ele>
        <time>2021-03-30T06:30:41Z</time>
      </trkpt>
      <trkpt lat="43.27757" lon="2.30839">
        <ele>194.5</ele>
        <time>2021-03-30T06:30:49Z</time>
      </trkpt>
      <trkpt lat="43.27764" lon="2.3087">
        <ele>192.984375</ele>
        <time>2021-03-30T06:30:57Z</time>
      </trkpt>
      <trkpt lat="43.27766" lon="2.309">
        <ele>190.75390625</ele>
        <time>2021-03-30T06:31:05Z</time>
      </trkpt>
      <trkpt lat="43.27764" lon="2.30931">
        <ele>187.86328125</ele>
        <time>2021-03-30T06:31:12Z</time>
      </trkpt>
      <trkpt lat="43.27768" lon="2.30962">
        <ele>184.79296875</ele>
        <time>2021-03-30T06:31:19Z</time>
      </trkpt>
      <trkpt lat="43.27769" lon="2.30994">
        <ele>181.96484375</ele>
        <time>2021-03-30T06:31:27Z</time>
      </trkpt>
      <trkpt lat="43.27769" lon="2.31027">
        <ele>179.23828125</ele>
        <time>2021-03-30T06:31:34Z</time>
      </trkpt>
      <trkpt lat="43.27771" lon="2.31054">
        <ele>177.48828125</ele>
        <time>2021-03-30T06:31:41Z</time>
      </trkpt>
      <trkpt lat="43.2777" lon="2.31085">
        <ele>175.4609375</ele>
        <time>2021-03-30T06:31:49Z</time>
      </trkpt>
      <trkpt lat="43.27768" lon="2.31114">
        <ele>173.671875</ele>
        <time>2021-03-30T06:31:56Z</time>
      </trkpt>
      <trkpt lat="43.27755" lon="2.31142">
        <ele>171.73046875</ele>
        <time>2021-03-30T06:32:05Z</time>
      </trkpt>
      <trkpt lat="43.27743" lon="2.31171">
        <ele>169.3515625</ele>
        <time>2021-03-30T06:32:23Z</time>
      </trkpt>
      <trkpt lat="43.27738" lon="2.31197">
        <ele>167.66015625</ele>
        <time>2021-03-30T06:32:38Z</time>
      </trkpt>
      <trkpt lat="43.27742" lon="2.31228">
        <ele>167.0546875</ele>
        <time>2021-03-30T06:32:54Z</time>
      </trkpt>
      <trkpt lat="43.2773" lon="2.31264">
        <ele>166.65234375</ele>
        <time>2021-03-30T06:33:12Z</time>
      </trkpt>
      <trkpt lat="43.27737" lon="2.31295">
        <ele>167.91796875</ele>
        <time>2021-03-30T06:33:26Z</time>
      </trkpt>
      <trkpt lat="43.27741" lon="2.31326">
        <ele>168.8359375</ele>
        <time>2021-03-30T06:33:37Z</time>
      </trkpt>
      <trkpt lat="43.27755" lon="2.31343">
        <ele>169.7734375</ele>
        <time>2021-03-30T06:33:51Z</time>
      </trkpt>
      <trkpt lat="43.27775" lon="2.31337">
        <ele>170.01171875</ele>
        <time>2021-03-30T06:34:05Z</time>
      </trkpt>
      <trkpt lat="43.27795" lon="2.31325">
        <ele>170.171875</ele>
        <time>2021-03-30T06:34:19Z</time>
      </trkpt>
      <trkpt lat="43.27819" lon="2.31321">
        <ele>170.65625</ele>
        <time>2021-03-30T06:34:37Z</time>
      </trkpt>
      <trkpt lat="43.27845" lon="2.3131">
        <ele>171.390625</ele>
        <time>2021-03-30T06:34:51Z</time>
      </trkpt>
      <trkpt lat="43.27873" lon="2.31297">
        <ele>172.61328125</ele>
        <time>2021-03-30T06:35:03Z</time>
      </trkpt>
      <trkpt lat="43.27897" lon="2.31282">
        <ele>173.9921875</ele>
        <time>2021-03-30T06:35:12Z</time>
      </trkpt>
      <trkpt lat="43.27922" lon="2.31263">
        <ele>175.12890625</ele>
        <time>2021-03-30T06:35:30Z</time>
      </trkpt>
      <trkpt lat="43.27956" lon="2.31247">
        <ele>176.35546875</ele>
        <time>2021-03-30T06:35:45Z</time>
      </trkpt>
      <trkpt lat="43.27981" lon="2.31242">
        <ele>177.28125</ele>
        <time>2021-03-30T06:36:01Z</time>
      </trkpt>
      <trkpt lat="43.28014" lon="2.31232">
        <ele>178.625</ele>
        <time>2021-03-30T06:36:16Z</time>
      </trkpt>
      <trkpt lat="43.28038" lon="2.31219">
        <ele>179.8828125</ele>
        <time>2021-03-30T06:36:27Z</time>
      </trkpt>
      <trkpt lat="43.28059" lon="2.31213">
        <ele>181.03125</ele>
        <time>2021-03-30T06:36:43Z</time>
      </trkpt>
      <trkpt lat="43.28116" lon="2.31216">
        <ele>183.1640625</ele>
        <time>2021-03-30T06:37:07Z</time>
      </trkpt>
      <trkpt lat="43.28147" lon="2.31285">
        <ele>184.38671875</ele>
        <time>2021-03-30T06:37:32Z</time>
      </trkpt>
      <trkpt lat="43.28137" lon="2.31329">
        <ele>184.55078125</ele>
        <time>2021-03-30T06:37:50Z</time>
      </trkpt>
      <trkpt lat="43.28131" lon="2.31358">
        <ele>184.953125</ele>
        <time>2021-03-30T06:38:04Z</time>
      </trkpt>
      <trkpt lat="43.28123" lon="2.31388">
        <ele>184.7578125</ele>
        <time>2021-03-30T06:38:17Z</time>
      </trkpt>
      <trkpt lat="43.28119" lon="2.3143">
        <ele>185.5234375</ele>
        <time>2021-03-30T06:38:53Z</time>
      </trkpt>
      <trkpt lat="43.28116" lon="2.31461">
        <ele>186.36328125</ele>
        <time>2021-03-30T06:40:05Z</time>
      </trkpt>
      <trkpt lat="43.28123" lon="2.31487">
        <ele>187.2734375</ele>
        <time>2021-03-30T06:40:34Z</time>
      </trkpt>
      <trkpt lat="43.28142" lon="2.31513">
        <ele>188.8359375</ele>
        <time>2021-03-30T06:40:56Z</time>
      </trkpt>
      <trkpt lat="43.28175" lon="2.31518">
        <ele>190.1953125</ele>
        <time>2021-03-30T06:41:15Z</time>
      </trkpt>
      <trkpt lat="43.28205" lon="2.31505">
        <ele>191.60546875</ele>
        <time>2021-03-30T06:41:27Z</time>
      </trkpt>
      <trkpt lat="43.2822" lon="2.31485">
        <ele>192.3984375</ele>
        <time>2021-03-30T06:41:52Z</time>
      </trkpt>
      <trkpt lat="43.28227" lon="2.31468">
        <ele>192.609375</ele>
        <time>2021-03-30T06:43:08Z</time>
      </trkpt>
      <trkpt lat="43.28249" lon="2.31483">
        <ele>194.05859375</ele>
        <time>2021-03-30T06:43:39Z</time>
      </trkpt>
      <trkpt lat="43.28251" lon="2.31511">
        <ele>194.6953125</ele>
        <time>2021-03-30T06:43:57Z</time>
      </trkpt>
      <trkpt lat="43.28269" lon="2.31535">
        <ele>195.75390625</ele>
        <time>2021-03-30T06:44:07Z</time>
      </trkpt>
      <trkpt lat="43.28283" lon="2.31539">
        <ele>196.47265625</ele>
        <time>2021-03-30T06:44:18Z</time>
      </trkpt>
      <trkpt lat="43.28301" lon="2.31533">
        <ele>197.53125</ele>
        <time>2021-03-30T06:44:29Z</time>
      </trkpt>
      <trkpt lat="43.28321" lon="2.31526">
        <ele>198.5</ele>
        <time>2021-03-30T06:44:46Z</time>
      </trkpt>
      <trkpt lat="43.28352" lon="2.31515">
        <ele>199.5859375</ele>
        <time>2021-03-30T06:44:57Z</time>
      </trkpt>
      <trkpt lat="43.28373" lon="2.31497">
        <ele>200.44140625</ele>
        <time>2021-03-30T06:45:08Z</time>
      </trkpt>
      <trkpt lat="43.28389" lon="2.31473">
        <ele>200.95703125</ele>
        <time>2021-03-30T06:45:19Z</time>
      </trkpt>
      <trkpt lat="43.28399" lon="2.31462">
        <ele>201.18359375</ele>
        <time>2021-03-30T06:45:31Z</time>
      </trkpt>
      <trkpt lat="43.28401" lon="2.31484">
        <ele>201.55859375</ele>
        <time>2021-03-30T06:45:45Z</time>
      </trkpt>
      <trkpt lat="43.28396" lon="2.31509">
        <ele>201.609375</ele>
        <time>2021-03-30T06:45:58Z</time>
      </trkpt>
      <trkpt lat="43.28388" lon="2.3154">
        <ele>201.3828125</ele>
        <time>2021-03-30T06:46:09Z</time>
      </trkpt>
      <trkpt lat="43.28375" lon="2.31566">
        <ele>200.671875</ele>
        <time>2021-03-30T06:46:17Z</time>
      </trkpt>
      <trkpt lat="43.28364" lon="2.31597">
        <ele>199.78125</ele>
        <time>2021-03-30T06:46:26Z</time>
      </trkpt>
      <trkpt lat="43.28359" lon="2.31632">
        <ele>198.9296875</ele>
        <time>2021-03-30T06:46:34Z</time>
      </trkpt>
      <trkpt lat="43.28352" lon="2.31666">
        <ele>198.61328125</ele>
        <time>2021-03-30T06:46:43Z</time>
      </trkpt>
      <trkpt lat="43.28358" lon="2.3169">
        <ele>198.83203125</ele>
        <time>2021-03-30T06:46:53Z</time>
      </trkpt>
      <trkpt lat="43.28375" lon="2.31696">
        <ele>199.15625</ele>
        <time>2021-03-30T06:47:01Z</time>
      </trkpt>
      <trkpt lat="43.28397" lon="2.317">
        <ele>199.484375</ele>
        <time>2021-03-30T06:47:09Z</time>
      </trkpt>
      <trkpt lat="43.2842" lon="2.31702">
        <ele>199.92578125</ele>
        <time>2021-03-30T06:47:17Z</time>
      </trkpt>
      <trkpt lat="43.28441" lon="2.31705">
        <ele>200.98046875</ele>
        <time>2021-03-30T06:47:25Z</time>
      </trkpt>
      <trkpt lat="43.28464" lon="2.31702">
        <ele>202.29296875</ele>
        <time>2021-03-30T06:47:34Z</time>
      </trkpt>
      <trkpt lat="43.28478" lon="2.31702">
        <ele>203.00390625</ele>
        <time>2021-03-30T06:47:40Z</time>
      </trkpt>
      <trkpt lat="43.28506" lon="2.31701">
        <ele>204.1015625</ele>
        <time>2021-03-30T06:47:52Z</time>
      </trkpt>
      <trkpt lat="43.2853" lon="2.31702">
        <ele>205.01953125</ele>
        <time>2021-03-30T06:48:02Z</time>
      </trkpt>
      <trkpt lat="43.28554" lon="2.31706">
        <ele>206.75390625</ele>
        <time>2021-03-30T06:48:10Z</time>
      </trkpt>
      <trkpt lat="43.28577" lon="2.31709">
        <ele>208.41015625</ele>
        <time>2021-03-30T06:48:19Z</time>
      </trkpt>
      <trkpt lat="43.28599" lon="2.31711">
        <ele>209.77734375</ele>
        <time>2021-03-30T06:48:38Z</time>
      </trkpt>
      <trkpt lat="43.28625" lon="2.31707">
        <ele>211.171875</ele>
        <time>2021-03-30T06:48:53Z</time>
      </trkpt>
      <trkpt lat="43.28651" lon="2.31704">
        <ele>212.6015625</ele>
        <time>2021-03-30T06:49:04Z</time>
      </trkpt>
      <trkpt lat="43.28675" lon="2.317">
        <ele>213.97265625</ele>
        <time>2021-03-30T06:49:13Z</time>
      </trkpt>
      <trkpt lat="43.28697" lon="2.31697">
        <ele>215.11328125</ele>
        <time>2021-03-30T06:49:21Z</time>
      </trkpt>
      <trkpt lat="43.28721" lon="2.31693">
        <ele>215.9375</ele>
        <time>2021-03-30T06:49:30Z</time>
      </trkpt>
      <trkpt lat="43.28744" lon="2.31694">
        <ele>216.74609375</ele>
        <time>2021-03-30T06:49:39Z</time>
      </trkpt>
      <trkpt lat="43.28765" lon="2.31696">
        <ele>217.80078125</ele>
        <time>2021-03-30T06:49:48Z</time>
      </trkpt>
      <trkpt lat="43.28794" lon="2.3169">
        <ele>219.25390625</ele>
        <time>2021-03-30T06:49:57Z</time>
      </trkpt>
      <trkpt lat="43.28817" lon="2.31681">
        <ele>219.98046875</ele>
        <time>2021-03-30T06:50:05Z</time>
      </trkpt>
      <trkpt lat="43.28838" lon="2.31671">
        <ele>220.17578125</ele>
        <time>2021-03-30T06:50:13Z</time>
      </trkpt>
      <trkpt lat="43.28856" lon="2.31655">
        <ele>220.22265625</ele>
        <time>2021-03-30T06:50:21Z</time>
      </trkpt>
      <trkpt lat="43.28872" lon="2.31638">
        <ele>220.02734375</ele>
        <time>2021-03-30T06:50:29Z</time>
      </trkpt>
      <trkpt lat="43.28889" lon="2.31621">
        <ele>219.73828125</ele>
        <time>2021-03-30T06:50:37Z</time>
      </trkpt>
      <trkpt lat="43.28909" lon="2.31611">
        <ele>219.23046875</ele>
        <time>2021-03-30T06:50:46Z</time>
      </trkpt>
      <trkpt lat="43.28925" lon="2.316">
        <ele>218.17578125</ele>
        <time>2021-03-30T06:50:54Z</time>
      </trkpt>
      <trkpt lat="43.28942" lon="2.31589">
        <ele>216.58203125</ele>
        <time>2021-03-30T06:51:02Z</time>
      </trkpt>
      <trkpt lat="43.28962" lon="2.31579">
        <ele>214.8515625</ele>
        <time>2021-03-30T06:51:10Z</time>
      </trkpt>
      <trkpt lat="43.28981" lon="2.3157">
        <ele>213.32421875</ele>
        <time>2021-03-30T06:51:17Z</time>
      </trkpt>
      <trkpt lat="43.28999" lon="2.31561">
        <ele>211.4140625</ele>
        <time>2021-03-30T06:51:24Z</time>
      </trkpt>
      <trkpt lat="43.29018" lon="2.31551">
        <ele>209.35546875</ele>
        <time>2021-03-30T06:51:32Z</time>
      </trkpt>
      <trkpt lat="43.29037" lon="2.31537">
        <ele>207.1328125</ele>
        <time>2021-03-30T06:51:43Z</time>
      </trkpt>
      <trkpt lat="43.29058" lon="2.31526">
        <ele>204.91796875</ele>
        <time>2021-03-30T06:51:50Z</time>
      </trkpt>
      <trkpt lat="43.29076" lon="2.31517">
        <ele>203.41796875</ele>
        <time>2021-03-30T06:51:56Z</time>
      </trkpt>
      <trkpt lat="43.29093" lon="2.31507">
        <ele>202.70703125</ele>
        <time>2021-03-30T06:52:03Z</time>
      </trkpt>
      <trkpt lat="43.29113" lon="2.31496">
        <ele>202.59765625</ele>
        <time>2021-03-30T06:52:12Z</time>
      </trkpt>
      <trkpt lat="43.29134" lon="2.3149">
        <ele>202.1640625</ele>
        <time>2021-03-30T06:52:21Z</time>
      </trkpt>
      <trkpt lat="43.29153" lon="2.31484">
        <ele>202.28515625</ele>
        <time>2021-03-30T06:52:30Z</time>
      </trkpt>
      <trkpt lat="43.29174" lon="2.31478">
        <ele>202.65234375</ele>
        <time>2021-03-30T06:52:39Z</time>
      </trkpt>
      <trkpt lat="43.29195" lon="2.31474">
        <ele>202.83984375</ele>
        <time>2021-03-30T06:52:47Z</time>
      </trkpt>
      <trkpt lat="43.29221" lon="2.31472">
        <ele>202.9453125</ele>
        <time>2021-03-30T06:52:55Z</time>
      </trkpt>
      <trkpt lat="43.29243" lon="2.31468">
        <ele>203.046875</ele>
        <time>2021-03-30T06:53:03Z</time>
      </trkpt>
      <trkpt lat="43.29263" lon="2.31463">
        <ele>203.53515625</ele>
        <time>2021-03-30T06:53:12Z</time>
      </trkpt>
      <trkpt lat="43.29283" lon="2.31457">
        <ele>204.265625</ele>
        <time>2021-03-30T06:53:21Z</time>
      </trkpt>
      <trkpt lat="43.29303" lon="2.3145">
        <ele>204.89453125</ele>
        <time>2021-03-30T06:53:30Z</time>
      </trkpt>
      <trkpt lat="43.29322" lon="2.31441">
        <ele>205.703125</ele>
        <time>2021-03-30T06:53:39Z</time>
      </trkpt>
      <trkpt lat="43.29334" lon="2.31432">
        <ele>206.16015625</ele>
        <time>2021-03-30T06:53:46Z</time>
      </trkpt>
      <trkpt lat="43.29358" lon="2.31423">
        <ele>207.00390625</ele>
        <time>2021-03-30T06:53:57Z</time>
      </trkpt>
      <trkpt lat="43.29377" lon="2.31412">
        <ele>206.95703125</ele>
        <time>2021-03-30T06:54:06Z</time>
      </trkpt>
      <trkpt lat="43.29395" lon="2.31399">
        <ele>206.71484375</ele>
        <time>2021-03-30T06:54:15Z</time>
      </trkpt>
      <trkpt lat="43.29413" lon="2.31382">
        <ele>206.40625</ele>
        <time>2021-03-30T06:54:23Z</time>
      </trkpt>
      <trkpt lat="43.29427" lon="2.31363">
        <ele>204.83984375</ele>
        <time>2021-03-30T06:54:31Z</time>
      </trkpt>
      <trkpt lat="43.29439" lon="2.31344">
        <ele>203.33984375</ele>
        <time>2021-03-30T06:54:39Z</time>
      </trkpt>
      <trkpt lat="43.29454" lon="2.31324">
        <ele>202.01953125</ele>
        <time>2021-03-30T06:54:50Z</time>
      </trkpt>
      <trkpt lat="43.29466" lon="2.31305">
        <ele>201.453125</ele>
        <time>2021-03-30T06:55:04Z</time>
      </trkpt>
      <trkpt lat="43.29479" lon="2.31288">
        <ele>200.15234375</ele>
        <time>2021-03-30T06:55:13Z</time>
      </trkpt>
      <trkpt lat="43.29474" lon="2.31262">
        <ele>202.41015625</ele>
        <time>2021-03-30T06:55:28Z</time>
      </trkpt>
      <trkpt lat="43.29465" lon="2.31239">
        <ele>204.40234375</ele>
        <time>2021-03-30T06:55:37Z</time>
      </trkpt>
      <trkpt lat="43.29454" lon="2.31216">
        <ele>206.84765625</ele>
        <time>2021-03-30T06:55:47Z</time>
      </trkpt>
      <trkpt lat="43.29441" lon="2.31192">
        <ele>209.3203125</ele>
        <time>2021-03-30T06:55:58Z</time>
      </trkpt>
      <trkpt lat="43.2943" lon="2.31167">
        <ele>213.58984375</ele>
        <time>2021-03-30T06:56:10Z</time>
      </trkpt>
      <trkpt lat="43.29419" lon="2.31137">
        <ele>218.8203125</ele>
        <time>2021-03-30T06:56:26Z</time>
      </trkpt>
      <trkpt lat="43.29433" lon="2.31112">
        <ele>221.55859375</ele>
        <time>2021-03-30T06:56:39Z</time>
      </trkpt>
      <trkpt lat="43.29449" lon="2.31102">
        <ele>221.6796875</ele>
        <time>2021-03-30T06:56:49Z</time>
      </trkpt>
      <trkpt lat="43.29471" lon="2.31091">
        <ele>221.5390625</ele>
        <time>2021-03-30T06:57:22Z</time>
      </trkpt>
      <trkpt lat="43.29495" lon="2.31094">
        <ele>213.01953125</ele>
        <time>2021-03-30T06:57:46Z</time>
      </trkpt>
      <trkpt lat="43.29524" lon="2.31086">
        <ele>203.39453125</ele>
        <time>2021-03-30T06:57:59Z</time>
      </trkpt>
      <trkpt lat="43.29533" lon="2.3107">
        <ele>201.7109375</ele>
        <time>2021-03-30T06:58:30Z</time>
      </trkpt>
      <trkpt lat="43.29546" lon="2.31055">
        <ele>199.65625</ele>
        <time>2021-03-30T06:59:11Z</time>
      </trkpt>
      <trkpt lat="43.29552" lon="2.3103">
        <ele>199.296875</ele>
        <time>2021-03-30T06:59:21Z</time>
      </trkpt>
      <trkpt lat="43.29565" lon="2.3101">
        <ele>196.31640625</ele>
        <time>2021-03-30T06:59:44Z</time>
      </trkpt>
      <trkpt lat="43.29583" lon="2.30994">
        <ele>192.84375</ele>
        <time>2021-03-30T07:00:04Z</time>
      </trkpt>
      <trkpt lat="43.29596" lon="2.30969">
        <ele>194.40625</ele>
        <time>2021-03-30T07:00:19Z</time>
      </trkpt>
      <trkpt lat="43.29597" lon="2.30942">
        <ele>196.6171875</ele>
        <time>2021-03-30T07:00:41Z</time>
      </trkpt>
      <trkpt lat="43.296" lon="2.30917">
        <ele>198.54296875</ele>
        <time>2021-03-30T07:01:11Z</time>
      </trkpt>
      <trkpt lat="43.2959" lon="2.3089">
        <ele>201.2734375</ele>
        <time>2021-03-30T07:01:30Z</time>
      </trkpt>
      <trkpt lat="43.29578" lon="2.30861">
        <ele>205.85546875</ele>
        <time>2021-03-30T07:01:53Z</time>
      </trkpt>
      <trkpt lat="43.29585" lon="2.30831">
        <ele>210.0546875</ele>
        <time>2021-03-30T07:02:15Z</time>
      </trkpt>
      <trkpt lat="43.29594" lon="2.30803">
        <ele>212.265625</ele>
        <time>2021-03-30T07:02:29Z</time>
      </trkpt>
      <trkpt lat="43.29601" lon="2.30768">
        <ele>216.45703125</ele>
        <time>2021-03-30T07:02:44Z</time>
      </trkpt>
      <trkpt lat="43.29609" lon="2.3073">
        <ele>220.2109375</ele>
        <time>2021-03-30T07:03:01Z</time>
      </trkpt>
      <trkpt lat="43.29618" lon="2.30701">
        <ele>221.7421875</ele>
        <time>2021-03-30T07:03:10Z</time>
      </trkpt>
      <trkpt lat="43.29626" lon="2.30667">
        <ele>224.75390625</ele>
        <time>2021-03-30T07:03:19Z</time>
      </trkpt>
      <trkpt lat="43.29638" lon="2.30643">
        <ele>226.31640625</ele>
        <time>2021-03-30T07:03:28Z</time>
      </trkpt>
      <trkpt lat="43.29648" lon="2.30617">
        <ele>227.1171875</ele>
        <time>2021-03-30T07:03:36Z</time>
      </trkpt>
      <trkpt lat="43.29661" lon="2.30594">
        <ele>226.48046875</ele>
        <time>2021-03-30T07:03:43Z</time>
      </trkpt>
      <trkpt lat="43.29671" lon="2.30576">
        <ele>226.22265625</ele>
        <time>2021-03-30T07:03:48Z</time>
      </trkpt>
      <trkpt lat="43.29693" lon="2.30549">
        <ele>225.3828125</ele>
        <time>2021-03-30T07:03:58Z</time>
      </trkpt>
      <trkpt lat="43.29706" lon="2.30527">
        <ele>225.390625</ele>
        <time>2021-03-30T07:04:05Z</time>
      </trkpt>
      <trkpt lat="43.29719" lon="2.30504">
        <ele>223.96875</ele>
        <time>2021-03-30T07:04:14Z</time>
      </trkpt>
      <trkpt lat="43.29732" lon="2.30478">
        <ele>224.0859375</ele>
        <time>2021-03-30T07:04:29Z</time>
      </trkpt>
      <trkpt lat="43.29752" lon="2.30459">
        <ele>221.13671875</ele>
        <time>2021-03-30T07:04:39Z</time>
      </trkpt>
      <trkpt lat="43.29767" lon="2.30428">
        <ele>221.7265625</ele>
        <time>2021-03-30T07:04:50Z</time>
      </trkpt>
      <trkpt lat="43.29771" lon="2.30404">
        <ele>223.90234375</ele>
        <time>2021-03-30T07:05:03Z</time>
      </trkpt>
      <trkpt lat="43.29781" lon="2.30381">
        <ele>223.85546875</ele>
        <time>2021-03-30T07:05:15Z</time>
      </trkpt>
      <trkpt lat="43.29789" lon="2.30337">
        <ele>227.52734375</ele>
        <time>2021-03-30T07:05:32Z</time>
      </trkpt>
      <trkpt lat="43.29797" lon="2.3031">
        <ele>228.71484375</ele>
        <time>2021-03-30T07:06:06Z</time>
      </trkpt>
      <trkpt lat="43.29806" lon="2.30281">
        <ele>229.48046875</ele>
        <time>2021-03-30T07:06:33Z</time>
      </trkpt>
      <trkpt lat="43.29816" lon="2.30248">
        <ele>230.21484375</ele>
        <time>2021-03-30T07:06:52Z</time>
      </trkpt>
      <trkpt lat="43.29839" lon="2.302">
        <ele>226.44921875</ele>
        <time>2021-03-30T07:07:06Z</time>
      </trkpt>
      <trkpt lat="43.29866" lon="2.30164">
        <ele>215.71875</ele>
        <time>2021-03-30T07:07:25Z</time>
      </trkpt>
      <trkpt lat="43.29836" lon="2.30076">
        <ele>224.2734375</ele>
        <time>2021-03-30T07:07:53Z</time>
      </trkpt>
      <trkpt lat="43.29832" lon="2.30029">
        <ele>223.0625</ele>
        <time>2021-03-30T07:08:05Z</time>
      </trkpt>
      <trkpt lat="43.29823" lon="2.29989">
        <ele>226.45703125</ele>
        <time>2021-03-30T07:08:28Z</time>
      </trkpt>
      <trkpt lat="43.29826" lon="2.29953">
        <ele>227.45703125</ele>
        <time>2021-03-30T07:08:44Z</time>
      </trkpt>
      <trkpt lat="43.29836" lon="2.29925">
        <ele>227.08984375</ele>
        <time>2021-03-30T07:08:57Z</time>
      </trkpt>
      <trkpt lat="43.29852" lon="2.29884">
        <ele>227.93359375</ele>
        <time>2021-03-30T07:09:17Z</time>
      </trkpt>
      <trkpt lat="43.29864" lon="2.29843">
        <ele>231.1640625</ele>
        <time>2021-03-30T07:09:27Z</time>
      </trkpt>
      <trkpt lat="43.29893" lon="2.29811">
        <ele>225.0234375</ele>
        <time>2021-03-30T07:09:40Z</time>
      </trkpt>
      <trkpt lat="43.2991" lon="2.29765">
        <ele>218.52734375</ele>
        <time>2021-03-30T07:09:56Z</time>
      </trkpt>
      <trkpt lat="43.29904" lon="2.29723">
        <ele>220.515625</ele>
        <time>2021-03-30T07:10:13Z</time>
      </trkpt>
      <trkpt lat="43.29891" lon="2.29666">
        <ele>226.9140625</ele>
        <time>2021-03-30T07:10:25Z</time>
      </trkpt>
      <trkpt lat="43.29877" lon="2.29638">
        <ele>233.43359375</ele>
        <time>2021-03-30T07:10:37Z</time>
      </trkpt>
      <trkpt lat="43.29896" lon="2.29585">
        <ele>233.38671875</ele>
        <time>2021-03-30T07:10:52Z</time>
      </trkpt>
      <trkpt lat="43.29906" lon="2.29555">
        <ele>235.0390625</ele>
        <time>2021-03-30T07:11:06Z</time>
      </trkpt>
      <trkpt lat="43.29912" lon="2.29521">
        <ele>238.87890625</ele>
        <time>2021-03-30T07:11:23Z</time>
      </trkpt>
      <trkpt lat="43.29921" lon="2.29486">
        <ele>241.34375</ele>
        <time>2021-03-30T07:11:30Z</time>
      </trkpt>
      <trkpt lat="43.29932" lon="2.29449">
        <ele>244.18359375</ele>
        <time>2021-03-30T07:11:40Z</time>
      </trkpt>
      <trkpt lat="43.29941" lon="2.29411">
        <ele>247.79296875</ele>
        <time>2021-03-30T07:11:56Z</time>
      </trkpt>
      <trkpt lat="43.29954" lon="2.29357">
        <ele>249.890625</ele>
        <time>2021-03-30T07:12:19Z</time>
      </trkpt>
      <trkpt lat="43.29944" lon="2.29341">
        <ele>251.6328125</ele>
        <time>2021-03-30T07:12:47Z</time>
      </trkpt>
      <trkpt lat="43.29899" lon="2.29375">
        <ele>252.80078125</ele>
        <time>2021-03-30T07:13:12Z</time>
      </trkpt>
      <trkpt lat="43.29855" lon="2.29348">
        <ele>254.09375</ele>
        <time>2021-03-30T07:13:25Z</time>
      </trkpt>
      <trkpt lat="43.29863" lon="2.29317">
        <ele>254.76953125</ele>
        <time>2021-03-30T07:13:40Z</time>
      </trkpt>
      <trkpt lat="43.29871" lon="2.29299">
        <ele>255.015625</ele>
        <time>2021-03-30T07:13:48Z</time>
      </trkpt>
      <trkpt lat="43.29881" lon="2.29269">
        <ele>255.2265625</ele>
        <time>2021-03-30T07:13:56Z</time>
      </trkpt>
      <trkpt lat="43.29887" lon="2.29237">
        <ele>255.7734375</ele>
        <time>2021-03-30T07:14:10Z</time>
      </trkpt>
      <trkpt lat="43.29896" lon="2.2922">
        <ele>256.4609375</ele>
        <time>2021-03-30T07:14:19Z</time>
      </trkpt>
      <trkpt lat="43.29908" lon="2.29195">
        <ele>257.609375</ele>
        <time>2021-03-30T07:14:26Z</time>
      </trkpt>
      <trkpt lat="43.2992" lon="2.2918">
        <ele>258.06640625</ele>
        <time>2021-03-30T07:14:34Z</time>
      </trkpt>
      <trkpt lat="43.29941" lon="2.29151">
        <ele>258.75</ele>
        <time>2021-03-30T07:14:42Z</time>
      </trkpt>
      <trkpt lat="43.29947" lon="2.29118">
        <ele>259.078125</ele>
        <time>2021-03-30T07:14:50Z</time>
      </trkpt>
      <trkpt lat="43.29958" lon="2.29095">
        <ele>259.44921875</ele>
        <time>2021-03-30T07:14:58Z</time>
      </trkpt>
      <trkpt lat="43.29969" lon="2.2906">
        <ele>260.28515625</ele>
        <time>2021-03-30T07:15:06Z</time>
      </trkpt>
      <trkpt lat="43.29984" lon="2.2903">
        <ele>261.13671875</ele>
        <time>2021-03-30T07:15:16Z</time>
      </trkpt>
      <trkpt lat="43.29991" lon="2.29012">
        <ele>261.59765625</ele>
        <time>2021-03-30T07:15:24Z</time>
      </trkpt>
      <trkpt lat="43.30004" lon="2.28991">
        <ele>262.21484375</ele>
        <time>2021-03-30T07:15:32Z</time>
      </trkpt>
      <trkpt lat="43.30015" lon="2.28959">
        <ele>262.9296875</ele>
        <time>2021-03-30T07:15:40Z</time>
      </trkpt>
      <trkpt lat="43.30019" lon="2.28934">
        <ele>263.37890625</ele>
        <time>2021-03-30T07:15:49Z</time>
      </trkpt>
      <trkpt lat="43.3" lon="2.28916">
        <ele>262.96484375</ele>
        <time>2021-03-30T07:15:58Z</time>
      </trkpt>
      <trkpt lat="43.29984" lon="2.28905">
        <ele>262.43359375</ele>
        <time>2021-03-30T07:16:08Z</time>
      </trkpt>
      <trkpt lat="43.29965" lon="2.28887">
        <ele>261.65234375</ele>
        <time>2021-03-30T07:16:20Z</time>
      </trkpt>
      <trkpt lat="43.29934" lon="2.28886">
        <ele>260.2734375</ele>
        <time>2021-03-30T07:16:45Z</time>
      </trkpt>
      <trkpt lat="43.29912" lon="2.28897">
        <ele>259.0390625</ele>
        <time>2021-03-30T07:16:53Z</time>
      </trkpt>
      <trkpt lat="43.2989" lon="2.28909">
        <ele>257.65234375</ele>
        <time>2021-03-30T07:17:00Z</time>
      </trkpt>
      <trkpt lat="43.29865" lon="2.28915">
        <ele>256.18359375</ele>
        <time>2021-03-30T07:17:12Z</time>
      </trkpt>
      <trkpt lat="43.29844" lon="2.28928">
        <ele>255.34765625</ele>
        <time>2021-03-30T07:17:20Z</time>
      </trkpt>
      <trkpt lat="43.29825" lon="2.2894">
        <ele>254.66796875</ele>
        <time>2021-03-30T07:17:28Z</time>
      </trkpt>
      <trkpt lat="43.29806" lon="2.28942">
        <ele>253.98828125</ele>
        <time>2021-03-30T07:17:38Z</time>
      </trkpt>
      <trkpt lat="43.29786" lon="2.28946">
        <ele>252.34375</ele>
        <time>2021-03-30T07:17:48Z</time>
      </trkpt>
      <trkpt lat="43.29765" lon="2.28953">
        <ele>250.80078125</ele>
        <time>2021-03-30T07:18:02Z</time>
      </trkpt>
      <trkpt lat="43.29742" lon="2.28958">
        <ele>249.16796875</ele>
        <time>2021-03-30T07:18:13Z</time>
      </trkpt>
      <trkpt lat="43.29717" lon="2.28964">
        <ele>247.5078125</ele>
        <time>2021-03-30T07:18:20Z</time>
      </trkpt>
      <trkpt lat="43.29682" lon="2.28974">
        <ele>245.3125</ele>
        <time>2021-03-30T07:18:31Z</time>
      </trkpt>
      <trkpt lat="43.29667" lon="2.28993">
        <ele>244.84765625</ele>
        <time>2021-03-30T07:18:39Z</time>
      </trkpt>
      <trkpt lat="43.29656" lon="2.29015">
        <ele>244.6875</ele>
        <time>2021-03-30T07:18:51Z</time>
      </trkpt>
      <trkpt lat="43.29663" lon="2.29032">
        <ele>245.2578125</ele>
        <time>2021-03-30T07:19:07Z</time>
      </trkpt>
      <trkpt lat="43.2967" lon="2.29008">
        <ele>245.2890625</ele>
        <time>2021-03-30T07:19:16Z</time>
      </trkpt>
      <trkpt lat="43.29677" lon="2.28987">
        <ele>245.2734375</ele>
        <time>2021-03-30T07:19:24Z</time>
      </trkpt>
      <trkpt lat="43.29692" lon="2.28963">
        <ele>245.8203125</ele>
        <time>2021-03-30T07:19:31Z</time>
      </trkpt>
      <trkpt lat="43.29693" lon="2.28938">
        <ele>245.84375</ele>
        <time>2021-03-30T07:19:40Z</time>
      </trkpt>
      <trkpt lat="43.29675" lon="2.28922">
        <ele>244.55859375</ele>
        <time>2021-03-30T07:19:51Z</time>
      </trkpt>
      <trkpt lat="43.29656" lon="2.28907">
        <ele>243.1640625</ele>
        <time>2021-03-30T07:19:59Z</time>
      </trkpt>
      <trkpt lat="43.29636" lon="2.28892">
        <ele>241.84765625</ele>
        <time>2021-03-30T07:20:07Z</time>
      </trkpt>
      <trkpt lat="43.29618" lon="2.28885">
        <ele>241.23046875</ele>
        <time>2021-03-30T07:20:16Z</time>
      </trkpt>
      <trkpt lat="43.29598" lon="2.28852">
        <ele>240.390625</ele>
        <time>2021-03-30T07:20:26Z</time>
      </trkpt>
      <trkpt lat="43.29578" lon="2.28843">
        <ele>239.39453125</ele>
        <time>2021-03-30T07:20:37Z</time>
      </trkpt>
      <trkpt lat="43.29556" lon="2.28846">
        <ele>238.3671875</ele>
        <time>2021-03-30T07:20:46Z</time>
      </trkpt>
      <trkpt lat="43.2953" lon="2.2885">
        <ele>237.05859375</ele>
        <time>2021-03-30T07:20:55Z</time>
      </trkpt>
      <trkpt lat="43.2951" lon="2.28831">
        <ele>236.15234375</ele>
        <time>2021-03-30T07:21:05Z</time>
      </trkpt>
      <trkpt lat="43.29482" lon="2.28832">
        <ele>234.88671875</ele>
        <time>2021-03-30T07:21:17Z</time>
      </trkpt>
      <trkpt lat="43.29455" lon="2.28842">
        <ele>233.66015625</ele>
        <time>2021-03-30T07:21:30Z</time>
      </trkpt>
      <trkpt lat="43.29433" lon="2.28841">
        <ele>232.4453125</ele>
        <time>2021-03-30T07:21:45Z</time>
      </trkpt>
      <trkpt lat="43.29403" lon="2.28819">
        <ele>230.71875</ele>
        <time>2021-03-30T07:22:00Z</time>
      </trkpt>
      <trkpt lat="43.29368" lon="2.28781">
        <ele>228.375</ele>
        <time>2021-03-30T07:22:12Z</time>
      </trkpt>
      <trkpt lat="43.29341" lon="2.28765">
        <ele>226.8125</ele>
        <time>2021-03-30T07:22:31Z</time>
      </trkpt>
      <trkpt lat="43.29321" lon="2.28744">
        <ele>225.34375</ele>
        <time>2021-03-30T07:22:59Z</time>
      </trkpt>
      <trkpt lat="43.29301" lon="2.28718">
        <ele>224.015625</ele>
        <time>2021-03-30T07:23:48Z</time>
      </trkpt>
      <trkpt lat="43.29286" lon="2.28691">
        <ele>223.58984375</ele>
        <time>2021-03-30T07:24:05Z</time>
      </trkpt>
      <trkpt lat="43.29273" lon="2.28673">
        <ele>223.328125</ele>
        <time>2021-03-30T07:24:17Z</time>
      </trkpt>
      <trkpt lat="43.29261" lon="2.28647">
        <ele>222.78515625</ele>
        <time>2021-03-30T07:24:27Z</time>
      </trkpt>
      <trkpt lat="43.29247" lon="2.28626">
        <ele>222.1328125</ele>
        <time>2021-03-30T07:24:37Z</time>
      </trkpt>
      <trkpt lat="43.29232" lon="2.28597">
        <ele>220.52734375</ele>
        <time>2021-03-30T07:24:47Z</time>
      </trkpt>
      <trkpt lat="43.29221" lon="2.28563">
        <ele>218.31640625</ele>
        <time>2021-03-30T07:24:57Z</time>
      </trkpt>
      <trkpt lat="43.29216" lon="2.28529">
        <ele>215.37890625</ele>
        <time>2021-03-30T07:25:06Z</time>
      </trkpt>
      <trkpt lat="43.29211" lon="2.28497">
        <ele>213.265625</ele>
        <time>2021-03-30T07:25:14Z</time>
      </trkpt>
      <trkpt lat="43.29204" lon="2.2847">
        <ele>211.515625</ele>
        <time>2021-03-30T07:25:24Z</time>
      </trkpt>
      <trkpt lat="43.29204" lon="2.28442">
        <ele>209.0234375</ele>
        <time>2021-03-30T07:25:31Z</time>
      </trkpt>
      <trkpt lat="43.29194" lon="2.28423">
        <ele>207.83984375</ele>
        <time>2021-03-30T07:25:34Z</time>
      </trkpt>
      <trkpt lat="43.29185" lon="2.28395">
        <ele>207.98046875</ele>
        <time>2021-03-30T07:25:44Z</time>
      </trkpt>
      <trkpt lat="43.29178" lon="2.28378">
        <ele>208.66796875</ele>
        <time>2021-03-30T07:25:52Z</time>
      </trkpt>
      <trkpt lat="43.29166" lon="2.28363">
        <ele>210.421875</ele>
        <time>2021-03-30T07:26:01Z</time>
      </trkpt>
      <trkpt lat="43.29126" lon="2.28334">
        <ele>214.1171875</ele>
        <time>2021-03-30T07:26:11Z</time>
      </trkpt>
      <trkpt lat="43.29109" lon="2.28324">
        <ele>213.59375</ele>
        <time>2021-03-30T07:26:19Z</time>
      </trkpt>
      <trkpt lat="43.29096" lon="2.28302">
        <ele>213.10546875</ele>
        <time>2021-03-30T07:26:29Z</time>
      </trkpt>
      <trkpt lat="43.29085" lon="2.28275">
        <ele>211.953125</ele>
        <time>2021-03-30T07:26:39Z</time>
      </trkpt>
      <trkpt lat="43.29069" lon="2.28251">
        <ele>210.18359375</ele>
        <time>2021-03-30T07:26:47Z</time>
      </trkpt>
      <trkpt lat="43.29052" lon="2.2823">
        <ele>208.875</ele>
        <time>2021-03-30T07:26:55Z</time>
      </trkpt>
      <trkpt lat="43.29036" lon="2.28202">
        <ele>207.5390625</ele>
        <time>2021-03-30T07:27:04Z</time>
      </trkpt>
      <trkpt lat="43.29015" lon="2.28178">
        <ele>206.21875</ele>
        <time>2021-03-30T07:27:20Z</time>
      </trkpt>
      <trkpt lat="43.28995" lon="2.28162">
        <ele>205.19140625</ele>
        <time>2021-03-30T07:27:30Z</time>
      </trkpt>
      <trkpt lat="43.28977" lon="2.28143">
        <ele>204.1953125</ele>
        <time>2021-03-30T07:27:38Z</time>
      </trkpt>
      <trkpt lat="43.28962" lon="2.28119">
        <ele>203.24609375</ele>
        <time>2021-03-30T07:27:46Z</time>
      </trkpt>
      <trkpt lat="43.2895" lon="2.2809">
        <ele>202.2890625</ele>
        <time>2021-03-30T07:27:54Z</time>
      </trkpt>
      <trkpt lat="43.28937" lon="2.28068">
        <ele>201.5078125</ele>
        <time>2021-03-30T07:28:02Z</time>
      </trkpt>
      <trkpt lat="43.2892" lon="2.28038">
        <ele>200.30859375</ele>
        <time>2021-03-30T07:28:13Z</time>
      </trkpt>
      <trkpt lat="43.28905" lon="2.28">
        <ele>198.62109375</ele>
        <time>2021-03-30T07:28:28Z</time>
      </trkpt>
      <trkpt lat="43.28895" lon="2.27953">
        <ele>195.6015625</ele>
        <time>2021-03-30T07:28:52Z</time>
      </trkpt>
      <trkpt lat="43.28889" lon="2.27978">
        <ele>197.21875</ele>
        <time>2021-03-30T07:29:14Z</time>
      </trkpt>
      <trkpt lat="43.28891" lon="2.28002">
        <ele>198.375</ele>
        <time>2021-03-30T07:29:23Z</time>
      </trkpt>
      <trkpt lat="43.28907" lon="2.28026">
        <ele>199.734375</ele>
        <time>2021-03-30T07:29:32Z</time>
      </trkpt>
      <trkpt lat="43.28921" lon="2.28048">
        <ele>200.51171875</ele>
        <time>2021-03-30T07:29:41Z</time>
      </trkpt>
      <trkpt lat="43.28931" lon="2.28073">
        <ele>201.3515625</ele>
        <time>2021-03-30T07:29:50Z</time>
      </trkpt>
      <trkpt lat="43.28937" lon="2.28102">
        <ele>202.046875</ele>
        <time>2021-03-30T07:30:00Z</time>
      </trkpt>
      <trkpt lat="43.28939" lon="2.28135">
        <ele>202.68359375</ele>
        <time>2021-03-30T07:30:12Z</time>
      </trkpt>
      <trkpt lat="43.28941" lon="2.28161">
        <ele>203.2109375</ele>
        <time>2021-03-30T07:30:21Z</time>
      </trkpt>
      <trkpt lat="43.28942" lon="2.28187">
        <ele>203.7421875</ele>
        <time>2021-03-30T07:30:31Z</time>
      </trkpt>
      <trkpt lat="43.28948" lon="2.28215">
        <ele>204.47265625</ele>
        <time>2021-03-30T07:30:40Z</time>
      </trkpt>
      <trkpt lat="43.28958" lon="2.28244">
        <ele>205.34375</ele>
        <time>2021-03-30T07:30:50Z</time>
      </trkpt>
      <trkpt lat="43.28952" lon="2.2828">
        <ele>206.07421875</ele>
        <time>2021-03-30T07:31:00Z</time>
      </trkpt>
      <trkpt lat="43.28949" lon="2.28315">
        <ele>206.67578125</ele>
        <time>2021-03-30T07:31:09Z</time>
      </trkpt>
      <trkpt lat="43.28949" lon="2.28347">
        <ele>206.6953125</ele>
        <time>2021-03-30T07:31:18Z</time>
      </trkpt>
      <trkpt lat="43.28949" lon="2.28376">
        <ele>206.69140625</ele>
        <time>2021-03-30T07:31:28Z</time>
      </trkpt>
      <trkpt lat="43.28938" lon="2.28405">
        <ele>206.09375</ele>
        <time>2021-03-30T07:31:37Z</time>
      </trkpt>
      <trkpt lat="43.28925" lon="2.28427">
        <ele>205.5234375</ele>
        <time>2021-03-30T07:31:47Z</time>
      </trkpt>
      <trkpt lat="43.28908" lon="2.28443">
        <ele>205.109375</ele>
        <time>2021-03-30T07:31:57Z</time>
      </trkpt>
      <trkpt lat="43.28882" lon="2.28461">
        <ele>204.12890625</ele>
        <time>2021-03-30T07:32:09Z</time>
      </trkpt>
      <trkpt lat="43.28858" lon="2.28464">
        <ele>202.96484375</ele>
        <time>2021-03-30T07:32:18Z</time>
      </trkpt>
      <trkpt lat="43.28833" lon="2.28468">
        <ele>202.00390625</ele>
        <time>2021-03-30T07:32:28Z</time>
      </trkpt>
      <trkpt lat="43.28812" lon="2.28472">
        <ele>201.1953125</ele>
        <time>2021-03-30T07:32:36Z</time>
      </trkpt>
      <trkpt lat="43.28793" lon="2.28476">
        <ele>200.5078125</ele>
        <time>2021-03-30T07:32:44Z</time>
      </trkpt>
      <trkpt lat="43.28774" lon="2.28477">
        <ele>199.8046875</ele>
        <time>2021-03-30T07:32:52Z</time>
      </trkpt>
      <trkpt lat="43.28753" lon="2.28481">
        <ele>199.0546875</ele>
        <time>2021-03-30T07:33:01Z</time>
      </trkpt>
      <trkpt lat="43.28735" lon="2.28469">
        <ele>198.13671875</ele>
        <time>2021-03-30T07:33:09Z</time>
      </trkpt>
      <trkpt lat="43.28726" lon="2.28443">
        <ele>197.89453125</ele>
        <time>2021-03-30T07:33:17Z</time>
      </trkpt>
      <trkpt lat="43.28717" lon="2.28415">
        <ele>197.5234375</ele>
        <time>2021-03-30T07:33:25Z</time>
      </trkpt>
      <trkpt lat="43.2871" lon="2.28385">
        <ele>196.89453125</ele>
        <time>2021-03-30T07:33:33Z</time>
      </trkpt>
      <trkpt lat="43.28704" lon="2.28357">
        <ele>196.4609375</ele>
        <time>2021-03-30T07:33:40Z</time>
      </trkpt>
      <trkpt lat="43.28698" lon="2.28329">
        <ele>196.11328125</ele>
        <time>2021-03-30T07:33:48Z</time>
      </trkpt>
      <trkpt lat="43.28687" lon="2.28303">
        <ele>195.49609375</ele>
        <time>2021-03-30T07:33:56Z</time>
      </trkpt>
      <trkpt lat="43.28676" lon="2.28278">
        <ele>194.59765625</ele>
        <time>2021-03-30T07:34:03Z</time>
      </trkpt>
      <trkpt lat="43.28665" lon="2.28255">
        <ele>193.9375</ele>
        <time>2021-03-30T07:34:10Z</time>
      </trkpt>
      <trkpt lat="43.28656" lon="2.28231">
        <ele>193.3125</ele>
        <time>2021-03-30T07:34:17Z</time>
      </trkpt>
      <trkpt lat="43.28647" lon="2.28206">
        <ele>192.546875</ele>
        <time>2021-03-30T07:34:24Z</time>
      </trkpt>
      <trkpt lat="43.28636" lon="2.28178">
        <ele>191.20703125</ele>
        <time>2021-03-30T07:34:31Z</time>
      </trkpt>
      <trkpt lat="43.28627" lon="2.28153">
        <ele>189.79296875</ele>
        <time>2021-03-30T07:34:38Z</time>
      </trkpt>
      <trkpt lat="43.28614" lon="2.28129">
        <ele>188.3203125</ele>
        <time>2021-03-30T07:34:45Z</time>
      </trkpt>
      <trkpt lat="43.28601" lon="2.28104">
        <ele>186.82421875</ele>
        <time>2021-03-30T07:34:52Z</time>
      </trkpt>
      <trkpt lat="43.28588" lon="2.28081">
        <ele>185.20703125</ele>
        <time>2021-03-30T07:34:59Z</time>
      </trkpt>
      <trkpt lat="43.28577" lon="2.2806">
        <ele>184.10546875</ele>
        <time>2021-03-30T07:35:05Z</time>
      </trkpt>
      <trkpt lat="43.28569" lon="2.28036">
        <ele>183.08203125</ele>
        <time>2021-03-30T07:35:12Z</time>
      </trkpt>
      <trkpt lat="43.28566" lon="2.28011">
        <ele>181.9375</ele>
        <time>2021-03-30T07:35:20Z</time>
      </trkpt>
      <trkpt lat="43.28543" lon="2.28021">
        <ele>180.68359375</ele>
        <time>2021-03-30T07:35:34Z</time>
      </trkpt>
      <trkpt lat="43.28534" lon="2.28046">
        <ele>180.97265625</ele>
        <time>2021-03-30T07:35:43Z</time>
      </trkpt>
      <trkpt lat="43.28526" lon="2.28071">
        <ele>181.421875</ele>
        <time>2021-03-30T07:35:52Z</time>
      </trkpt>
      <trkpt lat="43.28516" lon="2.28096">
        <ele>181.91796875</ele>
        <time>2021-03-30T07:36:00Z</time>
      </trkpt>
      <trkpt lat="43.28506" lon="2.28119">
        <ele>182.1875</ele>
        <time>2021-03-30T07:36:07Z</time>
      </trkpt>
      <trkpt lat="43.28496" lon="2.28143">
        <ele>182.33203125</ele>
        <time>2021-03-30T07:36:14Z</time>
      </trkpt>
      <trkpt lat="43.28483" lon="2.28166">
        <ele>182.5</ele>
        <time>2021-03-30T07:36:21Z</time>
      </trkpt>
      <trkpt lat="43.28469" lon="2.28189">
        <ele>182.83203125</ele>
        <time>2021-03-30T07:36:28Z</time>
      </trkpt>
      <trkpt lat="43.28455" lon="2.28212">
        <ele>182.890625</ele>
        <time>2021-03-30T07:36:35Z</time>
      </trkpt>
      <trkpt lat="43.28442" lon="2.28234">
        <ele>182.59765625</ele>
        <time>2021-03-30T07:36:42Z</time>
      </trkpt>
      <trkpt lat="43.2843" lon="2.28255">
        <ele>182.140625</ele>
        <time>2021-03-30T07:36:49Z</time>
      </trkpt>
      <trkpt lat="43.28417" lon="2.28277">
        <ele>181.5</ele>
        <time>2021-03-30T07:36:56Z</time>
      </trkpt>
      <trkpt lat="43.28404" lon="2.28298">
        <ele>180.92578125</ele>
        <time>2021-03-30T07:37:03Z</time>
      </trkpt>
      <trkpt lat="43.2839" lon="2.28318">
        <ele>180.375</ele>
        <time>2021-03-30T07:37:11Z</time>
      </trkpt>
      <trkpt lat="43.28375" lon="2.28333">
        <ele>179.82421875</ele>
        <time>2021-03-30T07:37:18Z</time>
      </trkpt>
      <trkpt lat="43.28358" lon="2.28349">
        <ele>179.046875</ele>
        <time>2021-03-30T07:37:26Z</time>
      </trkpt>
      <trkpt lat="43.28338" lon="2.28362">
        <ele>178.11328125</ele>
        <time>2021-03-30T07:37:34Z</time>
      </trkpt>
      <trkpt lat="43.2832" lon="2.28369">
        <ele>177.44921875</ele>
        <time>2021-03-30T07:37:41Z</time>
      </trkpt>
      <trkpt lat="43.28301" lon="2.28374">
        <ele>176.7578125</ele>
        <time>2021-03-30T07:37:48Z</time>
      </trkpt>
      <trkpt lat="43.28281" lon="2.28375">
        <ele>176.04296875</ele>
        <time>2021-03-30T07:37:55Z</time>
      </trkpt>
      <trkpt lat="43.28262" lon="2.28376">
        <ele>175.35546875</ele>
        <time>2021-03-30T07:38:02Z</time>
      </trkpt>
      <trkpt lat="43.28241" lon="2.28378">
        <ele>174.421875</ele>
        <time>2021-03-30T07:38:10Z</time>
      </trkpt>
      <trkpt lat="43.28219" lon="2.28385">
        <ele>173.25390625</ele>
        <time>2021-03-30T07:38:18Z</time>
      </trkpt>
      <trkpt lat="43.282" lon="2.28394">
        <ele>172.1796875</ele>
        <time>2021-03-30T07:38:27Z</time>
      </trkpt>
      <trkpt lat="43.28172" lon="2.28392">
        <ele>169.61328125</ele>
        <time>2021-03-30T07:38:40Z</time>
      </trkpt>
      <trkpt lat="43.28154" lon="2.28393">
        <ele>167.78125</ele>
        <time>2021-03-30T07:38:57Z</time>
      </trkpt>
      <trkpt lat="43.28131" lon="2.28395">
        <ele>165.7265625</ele>
        <time>2021-03-30T07:39:05Z</time>
      </trkpt>
      <trkpt lat="43.2811" lon="2.28402">
        <ele>164.23046875</ele>
        <time>2021-03-30T07:39:13Z</time>
      </trkpt>
      <trkpt lat="43.28091" lon="2.28408">
        <ele>162.71484375</ele>
        <time>2021-03-30T07:39:21Z</time>
      </trkpt>
      <trkpt lat="43.28069" lon="2.28409">
        <ele>161.37109375</ele>
        <time>2021-03-30T07:39:31Z</time>
      </trkpt>
      <trkpt lat="43.28047" lon="2.28409">
        <ele>160.1953125</ele>
        <time>2021-03-30T07:39:44Z</time>
      </trkpt>
      <trkpt lat="43.28043" lon="2.28427">
        <ele>159.6015625</ele>
        <time>2021-03-30T07:40:14Z</time>
      </trkpt>
      <trkpt lat="43.2802" lon="2.28443">
        <ele>157.78515625</ele>
        <time>2021-03-30T07:40:28Z</time>
      </trkpt>
      <trkpt lat="43.28005" lon="2.28463">
        <ele>156.66796875</ele>
        <time>2021-03-30T07:40:37Z</time>
      </trkpt>
      <trkpt lat="43.27986" lon="2.28486">
        <ele>155.83203125</ele>
        <time>2021-03-30T07:40:53Z</time>
      </trkpt>
      <trkpt lat="43.27972" lon="2.28508">
        <ele>155.69140625</ele>
        <time>2021-03-30T07:41:03Z</time>
      </trkpt>
      <trkpt lat="43.27952" lon="2.28516">
        <ele>156.26171875</ele>
        <time>2021-03-30T07:41:12Z</time>
      </trkpt>
      <trkpt lat="43.27932" lon="2.28525">
        <ele>156.75</ele>
        <time>2021-03-30T07:41:21Z</time>
      </trkpt>
      <trkpt lat="43.27916" lon="2.28547">
        <ele>157.43359375</ele>
        <time>2021-03-30T07:41:30Z</time>
      </trkpt>
      <trkpt lat="43.27903" lon="2.28567">
        <ele>158.30078125</ele>
        <time>2021-03-30T07:41:42Z</time>
      </trkpt>
      <trkpt lat="43.27898" lon="2.28531">
        <ele>157.8203125</ele>
        <time>2021-03-30T07:42:15Z</time>
      </trkpt>
      <trkpt lat="43.27903" lon="2.28507">
        <ele>157.25390625</ele>
        <time>2021-03-30T07:42:23Z</time>
      </trkpt>
      <trkpt lat="43.27905" lon="2.28479">
        <ele>156.85546875</ele>
        <time>2021-03-30T07:42:31Z</time>
      </trkpt>
      <trkpt lat="43.27908" lon="2.28452">
        <ele>155.3359375</ele>
        <time>2021-03-30T07:42:39Z</time>
      </trkpt>
      <trkpt lat="43.2791" lon="2.28424">
        <ele>153.4296875</ele>
        <time>2021-03-30T07:42:47Z</time>
      </trkpt>
      <trkpt lat="43.27912" lon="2.28399">
        <ele>152.49609375</ele>
        <time>2021-03-30T07:42:54Z</time>
      </trkpt>
      <trkpt lat="43.27915" lon="2.28374">
        <ele>152.06640625</ele>
        <time>2021-03-30T07:43:01Z</time>
      </trkpt>
      <trkpt lat="43.27917" lon="2.28348">
        <ele>152.5859375</ele>
        <time>2021-03-30T07:43:08Z</time>
      </trkpt>
      <trkpt lat="43.27913" lon="2.28323">
        <ele>153.58984375</ele>
        <time>2021-03-30T07:43:16Z</time>
      </trkpt>
      <trkpt lat="43.27896" lon="2.2831">
        <ele>152.41796875</ele>
        <time>2021-03-30T07:43:24Z</time>
      </trkpt>
      <trkpt lat="43.27877" lon="2.283">
        <ele>150.890625</ele>
        <time>2021-03-30T07:43:33Z</time>
      </trkpt>
      <trkpt lat="43.2785" lon="2.28292">
        <ele>149.16796875</ele>
        <time>2021-03-30T07:43:47Z</time>
      </trkpt>
      <trkpt lat="43.27829" lon="2.28282">
        <ele>148.5859375</ele>
        <time>2021-03-30T07:43:57Z</time>
      </trkpt>
      <trkpt lat="43.2781" lon="2.2827">
        <ele>148.0234375</ele>
        <time>2021-03-30T07:44:06Z</time>
      </trkpt>
      <trkpt lat="43.2779" lon="2.28258">
        <ele>147.4140625</ele>
        <time>2021-03-30T07:44:14Z</time>
      </trkpt>
      <trkpt lat="43.2777" lon="2.28245">
        <ele>146.44921875</ele>
        <time>2021-03-30T07:44:22Z</time>
      </trkpt>
      <trkpt lat="43.27749" lon="2.28233">
        <ele>145.15234375</ele>
        <time>2021-03-30T07:44:30Z</time>
      </trkpt>
      <trkpt lat="43.27731" lon="2.28224">
        <ele>144.4765625</ele>
        <time>2021-03-30T07:44:37Z</time>
      </trkpt>
      <trkpt lat="43.27709" lon="2.28221">
        <ele>143.61328125</ele>
        <time>2021-03-30T07:44:45Z</time>
      </trkpt>
      <trkpt lat="43.2769" lon="2.28229">
        <ele>142.63671875</ele>
        <time>2021-03-30T07:44:53Z</time>
      </trkpt>
      <trkpt lat="43.27669" lon="2.28234">
        <ele>142.078125</ele>
        <time>2021-03-30T07:45:02Z</time>
      </trkpt>
      <trkpt lat="43.2765" lon="2.28229">
        <ele>141.91796875</ele>
        <time>2021-03-30T07:45:12Z</time>
      </trkpt>
      <trkpt lat="43.27651" lon="2.28203">
        <ele>142.875</ele>
        <time>2021-03-30T07:45:22Z</time>
      </trkpt>
      <trkpt lat="43.27652" lon="2.28174">
        <ele>144.2109375</ele>
        <time>2021-03-30T07:45:32Z</time>
      </trkpt>
      <trkpt lat="43.27659" lon="2.28137">
        <ele>145.9296875</ele>
        <time>2021-03-30T07:45:45Z</time>
      </trkpt>
      <trkpt lat="43.27678" lon="2.28126">
        <ele>145.546875</ele>
        <time>2021-03-30T07:45:54Z</time>
      </trkpt>
      <trkpt lat="43.27693" lon="2.28111">
        <ele>145</ele>
        <time>2021-03-30T07:46:13Z</time>
      </trkpt>
      <trkpt lat="43.27671" lon="2.28107">
        <ele>144.87109375</ele>
        <time>2021-03-30T07:46:36Z</time>
      </trkpt>
      <trkpt lat="43.27646" lon="2.28122">
        <ele>145.40234375</ele>
        <time>2021-03-30T07:46:53Z</time>
      </trkpt>
      <trkpt lat="43.27617" lon="2.28127">
        <ele>145.23828125</ele>
        <time>2021-03-30T07:47:06Z</time>
      </trkpt>
      <trkpt lat="43.27584" lon="2.28123">
        <ele>144.6171875</ele>
        <time>2021-03-30T07:47:18Z</time>
      </trkpt>
      <trkpt lat="43.2755" lon="2.28121">
        <ele>141.3125</ele>
        <time>2021-03-30T07:47:30Z</time>
      </trkpt>
      <trkpt lat="43.27531" lon="2.28127">
        <ele>139.6484375</ele>
        <time>2021-03-30T07:47:44Z</time>
      </trkpt>
      <trkpt lat="43.27495" lon="2.28113">
        <ele>134.91796875</ele>
        <time>2021-03-30T07:47:54Z</time>
      </trkpt>
      <trkpt lat="43.27465" lon="2.28102">
        <ele>132.05078125</ele>
        <time>2021-03-30T07:48:11Z</time>
      </trkpt>
      <trkpt lat="43.27413" lon="2.28133">
        <ele>128.30859375</ele>
        <time>2021-03-30T07:48:40Z</time>
      </trkpt>
      <trkpt lat="43.27361" lon="2.28135">
        <ele>127.3203125</ele>
        <time>2021-03-30T07:48:51Z</time>
      </trkpt>
      <trkpt lat="43.27337" lon="2.28119">
        <ele>128.046875</ele>
        <time>2021-03-30T07:49:01Z</time>
      </trkpt>
      <trkpt lat="43.2731" lon="2.28098">
        <ele>127.35546875</ele>
        <time>2021-03-30T07:49:13Z</time>
      </trkpt>
      <trkpt lat="43.27283" lon="2.2811">
        <ele>127.25</ele>
        <time>2021-03-30T07:49:27Z</time>
      </trkpt>
      <trkpt lat="43.27255" lon="2.28127">
        <ele>128.13671875</ele>
        <time>2021-03-30T07:49:39Z</time>
      </trkpt>
      <trkpt lat="43.27234" lon="2.28143">
        <ele>127.734375</ele>
        <time>2021-03-30T07:49:48Z</time>
      </trkpt>
      <trkpt lat="43.27221" lon="2.28156">
        <ele>128.0234375</ele>
        <time>2021-03-30T07:49:57Z</time>
      </trkpt>
      <trkpt lat="43.27197" lon="2.28196">
        <ele>130.171875</ele>
        <time>2021-03-30T07:50:06Z</time>
      </trkpt>
      <trkpt lat="43.27171" lon="2.28217">
        <ele>129.34375</ele>
        <time>2021-03-30T07:50:16Z</time>
      </trkpt>
      <trkpt lat="43.27144" lon="2.28228">
        <ele>128.0234375</ele>
        <time>2021-03-30T07:50:26Z</time>
      </trkpt>
      <trkpt lat="43.27118" lon="2.28234">
        <ele>127.765625</ele>
        <time>2021-03-30T07:50:41Z</time>
      </trkpt>
      <trkpt lat="43.27091" lon="2.28245">
        <ele>127.703125</ele>
        <time>2021-03-30T07:50:54Z</time>
      </trkpt>
      <trkpt lat="43.27068" lon="2.28248">
        <ele>127.50390625</ele>
        <time>2021-03-30T07:51:04Z</time>
      </trkpt>
      <trkpt lat="43.27031" lon="2.28261">
        <ele>128.00390625</ele>
        <time>2021-03-30T07:51:19Z</time>
      </trkpt>
      <trkpt lat="43.26997" lon="2.28274">
        <ele>128.3359375</ele>
        <time>2021-03-30T07:51:31Z</time>
      </trkpt>
      <trkpt lat="43.26967" lon="2.28288">
        <ele>128.40625</ele>
        <time>2021-03-30T07:51:45Z</time>
      </trkpt>
      <trkpt lat="43.26935" lon="2.2829">
        <ele>127.2734375</ele>
        <time>2021-03-30T07:51:58Z</time>
      </trkpt>
      <trkpt lat="43.26906" lon="2.28287">
        <ele>125.88671875</ele>
        <time>2021-03-30T07:52:09Z</time>
      </trkpt>
      <trkpt lat="43.2689" lon="2.28298">
        <ele>125.9375</ele>
        <time>2021-03-30T07:52:21Z</time>
      </trkpt>
      <trkpt lat="43.26869" lon="2.28295">
        <ele>124.84765625</ele>
        <time>2021-03-30T07:52:33Z</time>
      </trkpt>
      <trkpt lat="43.26856" lon="2.28346">
        <ele>125.23046875</ele>
        <time>2021-03-30T07:52:42Z</time>
      </trkpt>
      <trkpt lat="43.26849" lon="2.28382">
        <ele>124.55078125</ele>
        <time>2021-03-30T07:52:51Z</time>
      </trkpt>
      <trkpt lat="43.26837" lon="2.28412">
        <ele>123.140625</ele>
        <time>2021-03-30T07:53:00Z</time>
      </trkpt>
      <trkpt lat="43.26807" lon="2.28452">
        <ele>121.66796875</ele>
        <time>2021-03-30T07:53:17Z</time>
      </trkpt>
      <trkpt lat="43.26807" lon="2.28479">
        <ele>122.2890625</ele>
        <time>2021-03-30T07:53:27Z</time>
      </trkpt>
      <trkpt lat="43.2678" lon="2.28541">
        <ele>126.09765625</ele>
        <time>2021-03-30T07:53:44Z</time>
      </trkpt>
      <trkpt lat="43.26789" lon="2.28558">
        <ele>126.5078125</ele>
        <time>2021-03-30T07:54:01Z</time>
      </trkpt>
      <trkpt lat="43.2678" lon="2.28589">
        <ele>128.30859375</ele>
        <time>2021-03-30T07:54:11Z</time>
      </trkpt>
      <trkpt lat="43.26767" lon="2.28624">
        <ele>130.15625</ele>
        <time>2021-03-30T07:54:19Z</time>
      </trkpt>
      <trkpt lat="43.26757" lon="2.2865">
        <ele>131.19140625</ele>
        <time>2021-03-30T07:54:31Z</time>
      </trkpt>
      <trkpt lat="43.26731" lon="2.28679">
        <ele>130.94140625</ele>
        <time>2021-03-30T07:54:52Z</time>
      </trkpt>
      <trkpt lat="43.2669" lon="2.28656">
        <ele>129.1875</ele>
        <time>2021-03-30T07:55:03Z</time>
      </trkpt>
      <trkpt lat="43.26667" lon="2.28649">
        <ele>128.63671875</ele>
        <time>2021-03-30T07:55:13Z</time>
      </trkpt>
      <trkpt lat="43.26632" lon="2.28651">
        <ele>128.1875</ele>
        <time>2021-03-30T07:55:23Z</time>
      </trkpt>
      <trkpt lat="43.26617" lon="2.28658">
        <ele>128.1953125</ele>
        <time>2021-03-30T07:55:33Z</time>
      </trkpt>
      <trkpt lat="43.26606" lon="2.2868">
        <ele>128.2734375</ele>
        <time>2021-03-30T07:55:43Z</time>
      </trkpt>
      <trkpt lat="43.26595" lon="2.28715">
        <ele>128.1640625</ele>
        <time>2021-03-30T07:55:52Z</time>
      </trkpt>
      <trkpt lat="43.26574" lon="2.28737">
        <ele>127.7734375</ele>
        <time>2021-03-30T07:56:01Z</time>
      </trkpt>
      <trkpt lat="43.26536" lon="2.2872">
        <ele>127.09765625</ele>
        <time>2021-03-30T07:56:09Z</time>
      </trkpt>
      <trkpt lat="43.26512" lon="2.28705">
        <ele>126.32421875</ele>
        <time>2021-03-30T07:56:18Z</time>
      </trkpt>
      <trkpt lat="43.26486" lon="2.28695">
        <ele>125.3828125</ele>
        <time>2021-03-30T07:56:28Z</time>
      </trkpt>
      <trkpt lat="43.26459" lon="2.28678">
        <ele>124.421875</ele>
        <time>2021-03-30T07:56:36Z</time>
      </trkpt>
      <trkpt lat="43.26451" lon="2.28705">
        <ele>124.57421875</ele>
        <time>2021-03-30T07:56:47Z</time>
      </trkpt>
      <trkpt lat="43.2644" lon="2.28728">
        <ele>124.375</ele>
        <time>2021-03-30T07:56:56Z</time>
      </trkpt>
      <trkpt lat="43.2642" lon="2.28744">
        <ele>124.015625</ele>
        <time>2021-03-30T07:57:10Z</time>
      </trkpt>
      <trkpt lat="43.26413" lon="2.28749">
        <ele>123.875</ele>
        <time>2021-03-30T07:57:17Z</time>
      </trkpt>
    </trkseg>
  </trk>
</gpx>